• Join FlightAware (Why Join?)
  • Login
  • US Flag GB Flag 
08:17 EDT


 

Airport Tracker/Info


-or-


 

Live Flight TrackerFlight Track Log ✈ N6ZQ ✈ 07-Jul-2014 ✈ 24J - KRMN

Flight Track Log - Related Links

Times and Time Zones

All times are in EDT time to prevent confusion due to time zone crossing. See the N6ZQ flight status page for this flight to view local times or setup timezone preferences in your user account.

Time Position Orientation Groundspeed Altitude Reporting Facility
EDT Latitude Longitude Course Direction KTS MPH feet Rate Location/Type
08:41 30.3750 -82.8542 63° Northeast 210 242 3,300  Level Jacksonville Center
08:42 30.3958 -82.8106 61° Northeast 181 208 4,400 1,020 Climbing Jacksonville Center
08:43 30.4208 -82.7625 59° Northeast 171 197 5,400 900 Climbing Jacksonville Center
08:44 30.4417 -82.7142 63° Northeast 166 191 6,300 900 Climbing Jacksonville Center
08:45 30.4625 -82.6661 63° Northeast 166 191 7,300 900 Climbing Jacksonville Center
08:46 30.4463 -82.6668 63° Northeast  Level FlightAware Approximate
08:46 30.4814 -82.6153 67° East 166 191 8,200  Level Jacksonville Center
08:47 30.5000 -82.5672 66° East 161 185 9,200 840 Climbing Jacksonville Center
08:48 30.5375 -82.5525 19° North 135 155 9,900 660 Climbing Jacksonville Center
08:49 30.5875 -82.5522 360° North 140 161 10,600 600 Climbing Jacksonville Center
08:50 30.6336 -82.5547 357° North 154 177 11,200 600 Climbing Jacksonville Center
08:51 30.6836 -82.5569 358° North 167 192 11,800 360 Climbing Jacksonville Center
08:52 30.7381 -82.5567 360° North 180 207 12,000 60 Climbing Jacksonville Center
08:53 30.7964 -82.5564 360° North 190 219 12,000  Level Jacksonville Center
08:54 30.8528 -82.5561 360° North 202 232 12,000  Level Jacksonville Center
08:55 30.9092 -82.5561 360° North 202 232 12,000  Level Jacksonville Center
08:56 30.9675 -82.5583 358° North 197 227 12,000  Level Jacksonville Center
08:57 31.0239 -82.5581 360° North 197 227 12,000  Level Jacksonville Center
08:58 31.0783 -82.5553 North 197 227 12,000  Level Jacksonville Center
08:59 31.1367 -82.5528 North 197 227 12,000  Level Jacksonville Center
09:00 31.1889 -82.5600 353° North 197 227 12,000 120 Level Jacksonville Center
09:01 31.2411 -82.5622 358° North 197 227 12,300 360 Climbing Jacksonville Center
09:02 31.2933 -82.5547 North 187 215 12,800 300 Climbing Jacksonville Center
09:03 31.3414 -82.5447 10° North 176 203 13,000 60 Climbing Jacksonville Center
09:04 31.3978 -82.5347 North 186 214 13,000  Level Jacksonville Center
09:05 31.4539 -82.5225 11° North 193 222 13,100  Climbing Jacksonville Center
09:06 31.5103 -82.5150 North 198 228 13,100  Level Jacksonville Center
09:07 31.5625 -82.4903 22° Northeast 198 228 13,100  Level Jacksonville Center
09:08 31.6061 -82.4486 39° Northeast 198 228 13,100  Level Jacksonville Center
09:09 31.6583 -82.4117 31° Northeast 203 234 13,100 -60 Level Jacksonville Center
09:10 31.7019 -82.3725 37° Northeast 203 234 13,000 -60 Descending Jacksonville Center
09:11 31.7539 -82.3331 33° Northeast 208 239 13,000  Level Jacksonville Center
09:12 31.8039 -82.2911 35° Northeast 208 239 13,100  Climbing Jacksonville Center
09:13 31.8517 -82.2492 37° Northeast 214 246 13,100  Level Jacksonville Center
09:14 31.8975 -82.2172 31° Northeast 214 246 13,100 -60 Level Jacksonville Center
09:15 31.9514 -82.1728 35° Northeast 214 246 13,000  Descending Jacksonville Center
09:16 31.9994 -82.1331 35° Northeast 214 246 13,100  Climbing Jacksonville Center
09:17 32.0450 -82.0961 35° Northeast 214 246 13,100  Level Jacksonville Center
09:18 32.0969 -82.0514 36° Northeast 207 238 13,100 -60 Level Jacksonville Center
09:19 32.1428 -82.0192 31° Northeast 212 244 13,000 -60 Descending Jacksonville Center
09:20 32.1944 -81.9744 36° Northeast 217 250 13,000  Level Jacksonville Center
09:21 32.2444 -81.9347 34° Northeast 212 244 13,000  Level Jacksonville Center
09:22 32.2878 -81.8972 36° Northeast 217 250 13,000  Level Jacksonville Center
09:23 32.3397 -81.8525 36° Northeast 217 250 13,000  Level Jacksonville Center
09:24 32.3917 -81.8125 33° Northeast 212 244 13,000 -60 Level Jacksonville Center
09:25 32.4331 -81.7775 36° Northeast 212 244 12,900  Descending Jacksonville Center
09:26 32.4869 -81.7325 35° Northeast 217 250 13,000  Climbing Jacksonville Center
09:27 32.5306 -81.6975 34° Northeast 217 250 12,900 -60 Descending Jacksonville Center
09:28 32.5822 -81.6550 35° Northeast 217 250 12,900  Level Jacksonville Center
09:29 32.6319 -81.6122 36° Northeast 215 247 13,000  Climbing Jacksonville Center
09:30 32.6753 -81.5797 32° Northeast 215 247 13,000  Level Jacksonville Center
09:31 32.7208 -81.5369 38° Northeast 215 247 13,000  Level Jacksonville Center
09:32 32.7725 -81.4942 35° Northeast 215 247 13,000  Level Jacksonville Center
09:33 32.8181 -81.4564 35° Northeast 215 247 13,000  Level Jacksonville Center
09:34 32.8678 -81.4161 34° Northeast 215 247 13,000  Level Jacksonville Center
09:35 32.9153 -81.3781 34° Northeast 215 247 13,000  Level Jacksonville Center
09:36 32.9628 -81.3378 35° Northeast 215 247 13,000  Level Jacksonville Center
09:37 33.0061 -81.2972 38° Northeast 209 241 13,000  Level Jacksonville Center
09:38 33.0600 -81.2617 29° Northeast 209 241 13,000  Level Jacksonville Center
09:39 33.1075 -81.2261 32° Northeast 209 241 13,000  Level Jacksonville Center
09:40 33.1592 -81.1903 30° Northeast 209 241 13,000  Level Jacksonville Center
09:41 33.2089 -81.1547 31° Northeast 204 235 13,000  Level Jacksonville Center
09:42 33.2606 -81.1164 32° Northeast 204 235 13,000  Level Jacksonville Center
09:43 33.3100 -81.0806 31° Northeast 204 235 13,000  Level Jacksonville Center
09:44 33.3575 -81.0450 32° Northeast 204 235 13,000  Level Jacksonville Center
09:45 33.4111 -81.0064 31° Northeast 204 235 13,000  Level Jacksonville Center
09:46 33.4586 -80.9731 30° Northeast 204 235 13,000  Level Jacksonville Center
09:47 33.5083 -80.9347 33° Northeast 204 235 13,000  Level Jacksonville Center
09:48 33.5597 -80.8986 30° Northeast 204 235 13,000  Level Jacksonville Center
09:49 33.6114 -80.8600 32° Northeast 204 235 13,000  Level Jacksonville Center
09:50 33.6608 -80.8264 29° Northeast 204 235 13,000  Level Jacksonville Center
09:51 33.7103 -80.7903 31° Northeast 204 235 13,000  Level Jacksonville Center
09:52 33.7597 -80.7517 33° Northeast 204 235 13,000  Level Jacksonville Center
09:53 33.8114 -80.7156 30° Northeast 204 235 13,000  Level Jacksonville Center
09:54 33.8586 -80.6792 33° Northeast 204 235 13,000  Level Jacksonville Center
09:55 33.9103 -80.6428 30° Northeast 204 235 13,000  Level Jacksonville Center
09:56 33.9597 -80.6067 31° Northeast 204 235 13,000  Level Jacksonville Center
09:57 34.0111 -80.5678 32° Northeast 204 235 13,000  Level Jacksonville Center
09:58 34.0647 -80.5311 30° Northeast 204 235 13,000  Level Jacksonville Center
09:59 34.1142 -80.4922 33° Northeast 204 235 13,000  Level Jacksonville Center
10:00 34.1656 -80.4556 31° Northeast 204 235 13,000  Level Jacksonville Center
10:01 34.2147 -80.4167 33° Northeast 204 235 13,000  Level Jacksonville Center
10:02 34.2683 -80.3775 31° Northeast 204 235 13,000  Level Jacksonville Center
10:03 34.3156 -80.3458 29° Northeast 203 234 13,000  Level Jacksonville Center
10:04 34.3689 -80.3042 33° Northeast 208 239 13,000  Level Jacksonville Center
10:05 34.4183 -80.2647 33° Northeast 208 239 13,000  Level Jacksonville Center
10:06 34.4694 -80.2231 34° Northeast 203 234 13,000  Level Jacksonville Center
10:08 34.5475 -80.1683 30° Northeast 204 235 13,000  Level Washington Center
10:09 34.5989 -80.1308 31° Northeast 211 243 13,000  Level Washington Center
10:10 34.6483 -80.0933 32° Northeast 217 250 13,100  Climbing Washington Center
10:11 34.6978 -80.0556 32° Northeast 212 244 13,100  Level Washington Center
10:12 34.7578 -80.0083 33° Northeast 220 253 13,100  Level Washington Center
10:13 34.8008 -79.9753 32° Northeast 215 247 13,100  Level Washington Center
10:14 34.8567 -79.9328 32° Northeast 210 242 13,100  Level Washington Center
10:15 34.9017 -79.8997 31° Northeast 215 247 13,100  Level Washington Center
10:16 34.9575 -79.8569 32° Northeast 215 247 13,100  Level Washington Center
10:17 35.0025 -79.8239 31° Northeast 215 247 13,100  Level Washington Center
10:18 35.0561 -79.7811 33° Northeast 215 247 13,100  Level Washington Center
10:19 35.1011 -79.7478 31° Northeast 215 247 13,100  Level Washington Center
10:20 35.1569 -79.7050 32° Northeast 215 247 13,100  Level Washington Center
10:21 35.2017 -79.6717 31° Northeast 215 247 13,100  Level Washington Center
10:22 35.2556 -79.6286 33° Northeast 215 247 13,100  Level Washington Center
10:23 35.3025 -79.5953 30° Northeast 215 247 13,100 -60 Level Washington Center
10:24 35.3581 -79.5547 31° Northeast 215 247 13,000 -60 Descending Washington Center
10:25 35.4011 -79.5189 34° Northeast 215 247 13,000  Level Washington Center
10:26 35.4586 -79.4783 30° Northeast 215 247 13,000  Level Washington Center
10:27 35.5036 -79.4422 33° Northeast 215 247 13,000  Level Washington Center
10:28 35.5572 -79.4014 32° Northeast 215 247 13,000  Level Washington Center
10:29 35.6042 -79.3628 34° Northeast 220 253 13,000  Level Washington Center
10:30 35.6597 -79.3194 32° Northeast 214 246 13,000  Level Washington Center
10:31 35.7047 -79.2856 31° Northeast 214 246 13,000  Level Washington Center
10:32 35.7603 -79.2422 32° Northeast 214 246 13,000  Level Washington Center
10:33 35.8053 -79.2083 31° Northeast 214 246 13,000  Level Washington Center
10:34 35.8608 -79.1647 32° Northeast 214 246 13,000  Level Washington Center
10:35 35.9056 -79.1308 32° Northeast 214 246 13,000  Level Washington Center
10:36 35.9589 -79.0897 32° Northeast 214 246 13,000  Level Washington Center
10:37 36.0100 -79.0508 32° Northeast 214 246 13,000  Level Washington Center
10:38 36.0592 -79.0119 33° Northeast 214 246 13,000  Level Washington Center
10:39 36.1103 -78.9731 32° Northeast 214 246 13,000  Level Washington Center
10:40 36.1617 -78.9289 35° Northeast 219 252 13,000  Level Washington Center
10:41 36.2025 -78.8894 38° Northeast 219 252 13,000  Level Washington Center
10:42 36.2581 -78.8428 34° Northeast 219 252 13,000  Level Washington Center
10:43 36.3028 -78.8111 30° Northeast 214 246 13,000  Level Washington Center
10:44 36.3539 -78.7694 33° Northeast 219 252 13,000  Level Washington Center
10:45 36.3986 -78.7350 32° Northeast 214 246 13,000  Level Washington Center
10:46 36.4561 -78.6933 30° Northeast 214 246 13,000  Level Washington Center
10:47 36.5050 -78.6542 33° Northeast 214 246 13,000  Level Washington Center
10:48 36.5561 -78.6147 32° Northeast 214 246 13,000  Level Washington Center
10:49 36.6069 -78.5778 30° Northeast 214 246 13,000  Level Washington Center
10:50 36.6542 -78.5356 36° Northeast 214 246 13,000  Level Washington Center
10:51 36.7053 -78.4908 35° Northeast 214 246 13,000  Level Washington Center
10:52 36.7583 -78.4489 32° Northeast 214 246 13,000  Level Washington Center
10:53 36.8072 -78.4092 33° Northeast 214 246 13,000  Level Washington Center
10:54 36.8603 -78.3694 31° Northeast 214 246 13,000  Level Washington Center
10:55 36.9092 -78.3297 33° Northeast 214 246 13,000  Level Washington Center
10:56 36.9539 -78.2950 32° Northeast 214 246 13,000  Level Washington Center
10:57 37.0047 -78.2550 32° Northeast 214 246 13,000  Level Washington Center
10:58 37.0536 -78.2153 33° Northeast 214 246 13,000  Level Washington Center
10:59 37.1003 -78.1778 33° Northeast 214 246 13,000  Level Washington Center
11:00 37.1472 -78.1375 34° Northeast 209 241 13,000  Level Washington Center
11:01 37.1958 -78.1000 32° Northeast 204 235 13,000  Level Washington Center
11:02 37.2447 -78.0572 35° Northeast 204 235 13,000  Level Washington Center
11:03 37.2936 -78.0197 31° Northeast 204 235 13,000  Level Washington Center
11:04 37.3422 -77.9794 33° Northeast 204 235 13,100  Climbing Washington Center
11:05 37.3911 -77.9417 32° Northeast 204 235 13,000  Descending Washington Center
11:06 37.4400 -77.8989 35° Northeast 204 235 13,100 -180 Climbing Washington Center
11:07 37.4906 -77.8586 32° Northeast 210 242 12,700 -480 Descending Washington Center
11:08 37.5456 -77.8183 30° Northeast 215 247 12,200 -600 Descending Washington Center
11:09 37.6069 -77.7833 24° Northeast 220 253 11,600 -660 Descending Washington Center
11:10 37.6636 -77.7508 24° Northeast 220 253 11,000 -660 Descending Washington Center
11:11 37.7206 -77.7158 26° Northeast 220 253 10,300 -720 Descending Washington Center
11:12 37.7797 -77.6831 24° Northeast 220 253 9,600 -720 Descending Washington Center
11:13 37.8344 -77.6481 27° Northeast 220 253 8,900 -720 Descending Washington Center
11:14 37.8914 -77.6153 24° Northeast 220 253 8,200 -720 Descending Washington Center
11:15 37.9503 -77.5825 24° Northeast 220 253 7,500 -780 Descending Washington Center
11:16 38.0072 -77.5472 26° Northeast 220 253 6,700 -900 Descending Washington Center
11:18 38.1500 -77.4667 24° Northeast 226 260 4,600 -960 Descending Potomac TRACON